createdAt,value
2022-09-23T00:02:43.014Z,101698.94
2022-09-23T00:06:44.697Z,101693.59
2022-09-23T00:10:46.378Z,101688.53
2022-09-23T00:14:48.074Z,101682.66
2022-09-23T00:18:50.905Z,101683.81
2022-09-23T00:22:53.462Z,101677.25
2022-09-23T00:26:55.122Z,101672.38
2022-09-23T00:30:57.085Z,101669.16
2022-09-23T00:34:58.813Z,101674.69
2022-09-23T00:39:00.678Z,101668.66
2022-09-23T00:43:02.357Z,101675.31
2022-09-23T00:47:04.191Z,101672.25
2022-09-23T00:51:09.125Z,101660.19
2022-09-23T00:55:16.030Z,101662.19
2022-09-23T00:59:17.826Z,101663.34
2022-09-23T01:03:19.939Z,101654.78
2022-09-23T01:07:21.954Z,101657.44
2022-09-23T01:11:45.422Z,101647.56
2022-09-23T01:15:53.480Z,101652.09
2022-09-23T01:20:15.393Z,101654.06
2022-09-23T01:24:46.295Z,101642.69
2022-09-23T01:29:24.413Z,101643.69
2022-09-23T01:33:47.963Z,101625.91
2022-09-23T01:38:10.853Z,101632.28
2022-09-23T01:42:17.743Z,101630.22
2022-09-23T01:46:52.202Z,101627.19
2022-09-23T01:51:02.675Z,101622.97
2022-09-23T01:55:22.311Z,101619.09
2022-09-23T01:59:29.875Z,101614.88
2022-09-23T02:03:37.269Z,101608.69
2022-09-23T02:07:44.184Z,101609.00
2022-09-23T02:11:48.820Z,101604.28
2022-09-23T02:15:54.509Z,101603.75
2022-09-23T02:20:01.840Z,101603.38
2022-09-23T02:24:09.646Z,101592.00
2022-09-23T02:28:17.001Z,101592.28
2022-09-23T02:32:36.327Z,101594.13
2022-09-23T02:37:01.879Z,101589.78
2022-09-23T02:41:23.832Z,101588.38
2022-09-23T02:45:25.809Z,101576.44
2022-09-23T02:49:29.614Z,101571.56
2022-09-23T02:53:35.188Z,101563.00
2022-09-23T02:57:36.906Z,101565.28
2022-09-23T03:02:02.193Z,101563.44
2022-09-23T03:06:26.497Z,101554.75
2022-09-23T03:10:42.105Z,101551.38
2022-09-23T03:15:07.470Z,101552.06
2022-09-23T03:19:23.557Z,101554.75
2022-09-23T03:23:31.469Z,101549.41
2022-09-23T03:27:36.596Z,101555.41
2022-09-23T03:31:40.202Z,101552.75
2022-09-23T03:36:08.798Z,101552.75
2022-09-23T03:40:19.460Z,101552.91
2022-09-23T03:44:21.917Z,101553.06
2022-09-23T03:48:26.658Z,101541.38
2022-09-23T03:52:28.648Z,101541.53
2022-09-23T03:56:30.311Z,101530.97
2022-09-23T04:00:31.999Z,101520.25
2022-09-23T04:04:36.668Z,101519.25
2022-09-23T04:08:38.331Z,101513.25
2022-09-23T04:12:40.084Z,101506.88
2022-09-23T04:16:41.801Z,101513.06
2022-09-23T04:20:43.534Z,101508.88
2022-09-23T04:24:45.206Z,101510.56
2022-09-23T04:28:46.860Z,101509.72
2022-09-23T04:32:48.570Z,101510.56
2022-09-23T04:36:50.852Z,101504.22
2022-09-23T04:40:52.574Z,101503.19
2022-09-23T04:44:54.221Z,101495.03
2022-09-23T04:48:55.901Z,101495.88
2022-09-23T04:52:57.548Z,101504.56
2022-09-23T04:56:59.399Z,101503.59
2022-09-23T05:01:24.878Z,101499.75
2022-09-23T05:05:27.773Z,101503.94
2022-09-23T05:09:29.497Z,101506.50
2022-09-23T05:13:32.698Z,101516.03
2022-09-23T05:17:34.339Z,101509.22
2022-09-23T05:21:37.860Z,101512.28
2022-09-23T05:25:42.547Z,101510.31
2022-09-23T05:29:44.641Z,101504.78
2022-09-23T05:33:49.233Z,101507.47
2022-09-23T05:37:50.861Z,101507.47
2022-09-23T05:41:53.877Z,101510.84
2022-09-23T05:46:08.359Z,101514.03
2022-09-23T05:50:10.802Z,101515.53
2022-09-23T10:31:08.684Z,101469.84
2022-09-23T10:35:11.414Z,101471.97
2022-09-23T10:39:31.774Z,101480.31
2022-09-23T10:44:11.742Z,101472.50
2022-09-23T10:48:40.847Z,101470.72
2022-09-23T10:52:49.190Z,101478.91
2022-09-23T10:57:43.569Z,101477.78
2022-09-23T11:02:09.743Z,101463.16
2022-09-23T11:06:29.797Z,101476.50
2022-09-23T11:10:49.847Z,101475.78
2022-09-23T11:15:12.310Z,101473.72
2022-09-23T11:19:53.914Z,101477.75
2022-09-23T11:24:28.186Z,101474.25
2022-09-23T11:28:45.392Z,101464.56
2022-09-23T11:33:14.386Z,101464.44
2022-09-23T11:37:22.041Z,101458.28
2022-09-23T11:41:31.422Z,101461.03
2022-09-23T11:45:52.093Z,101454.22
2022-09-23T11:50:04.441Z,101443.03
2022-09-23T11:54:23.203Z,101447.00
2022-09-23T11:58:31.783Z,101440.19
2022-09-23T12:02:40.024Z,101438.59
2022-09-23T12:06:48.046Z,101432.59
2022-09-23T12:11:06.559Z,101429.94
2022-09-23T12:15:11.146Z,101422.06
2022-09-23T12:19:31.161Z,101423.78
2022-09-23T12:23:49.550Z,101424.94
2022-09-23T12:27:55.347Z,101427.69
2022-09-23T12:31:57.086Z,101419.41
2022-09-23T12:36:09.541Z,101416.47
2022-09-23T12:40:23.999Z,101419.00
2022-09-23T12:44:39.417Z,101415.25
2022-09-23T12:48:59.100Z,101411.94
2022-09-23T12:53:35.845Z,101402.41
2022-09-23T12:57:37.491Z,101401.56
2022-09-23T13:01:39.782Z,101392.84
2022-09-23T13:06:11.850Z,101404.50
2022-09-23T13:10:30.941Z,101412.63
2022-09-23T13:14:34.128Z,101394.34
2022-09-23T13:18:54.698Z,101389.97
2022-09-23T13:22:56.306Z,101389.16
2022-09-23T13:27:26.711Z,101375.81
2022-09-23T13:31:28.606Z,101382.66
2022-09-23T13:35:37.493Z,101389.72
2022-09-23T13:39:39.160Z,101390.72
2022-09-23T13:43:45.353Z,101391.97
2022-09-23T13:47:48.937Z,101384.88
2022-09-23T13:51:53.477Z,101377.81
2022-09-23T13:56:04.036Z,101384.66
2022-09-23T14:00:21.272Z,101369.84
2022-09-23T14:04:25.406Z,101362.13
2022-09-23T14:08:29.348Z,101366.06
2022-09-23T14:12:31.065Z,101361.91
2022-09-23T14:16:38.229Z,101361.88
2022-09-23T14:20:50.338Z,101351.66
2022-09-23T14:24:52.935Z,101348.72
2022-09-23T14:28:54.877Z,101344.94
2022-09-23T14:32:57.072Z,101346.38
2022-09-23T14:37:32.018Z,101343.25
2022-09-23T14:41:39.863Z,101337.19
2022-09-23T14:45:45.275Z,101332.19
2022-09-23T14:50:11.203Z,101333.59
2022-09-23T14:54:41.524Z,101332.53
2022-09-23T14:58:50.993Z,101326.69
2022-09-23T15:03:11.688Z,101323.78
2022-09-23T15:07:19.077Z,101328.06
2022-09-23T15:11:23.623Z,101324.94
2022-09-23T15:15:30.344Z,101317.88
2022-09-23T15:19:35.435Z,101325.31
2022-09-23T15:23:51.821Z,101317.59
2022-09-23T15:27:59.421Z,101312.63
2022-09-23T15:32:01.380Z,101313.19
2022-09-23T15:36:03.512Z,101308.59
2022-09-23T15:40:06.279Z,101312.88
2022-09-23T15:44:21.704Z,101311.56
2022-09-23T15:48:27.509Z,101318.78
2022-09-23T15:52:29.210Z,101322.44
2022-09-23T15:56:30.886Z,101326.75
2022-09-23T16:00:34.850Z,101330.22
2022-09-23T16:04:37.194Z,101333.88
2022-09-23T16:08:39.363Z,101338.72
2022-09-23T16:12:41.430Z,101340.88
2022-09-23T16:16:45.228Z,101353.03
2022-09-23T16:20:47.764Z,101342.31
2022-09-23T16:24:49.480Z,101336.22
2022-09-23T16:28:54.134Z,101327.41
2022-09-23T16:32:56.562Z,101317.00
2022-09-23T16:36:58.315Z,101318.56
2022-09-23T16:41:00.832Z,101310.69
2022-09-23T16:45:02.752Z,101312.75
2022-09-23T16:49:05.151Z,101309.41
2022-09-23T16:53:06.952Z,101309.75
2022-09-23T16:57:09.770Z,101304.72
2022-09-23T17:01:42.683Z,101305.09
2022-09-23T17:05:46.794Z,101298.41
2022-09-23T17:09:48.949Z,101308.72
2022-09-23T17:13:51.657Z,101302.25
2022-09-23T17:17:53.321Z,101309.66
2022-09-23T17:21:55.082Z,101304.00
2022-09-23T17:25:57.117Z,101302.34
2022-09-23T17:29:59.052Z,101303.72
2022-09-23T17:34:01.081Z,101303.44
2022-09-23T17:38:02.747Z,101294.06
2022-09-23T17:42:05.107Z,101288.03
2022-09-23T17:46:12.968Z,101284.31
2022-09-23T17:50:15.007Z,101293.03
2022-09-23T17:54:16.785Z,101286.44
2022-09-23T17:58:18.964Z,101290.81
2022-09-23T18:02:23.635Z,101288.97
2022-09-23T18:06:28.290Z,101288.50
2022-09-23T18:10:30.776Z,101283.97
2022-09-23T18:14:32.447Z,101291.84
2022-09-23T18:18:34.185Z,101291.66
2022-09-23T18:22:35.823Z,101288.97
2022-09-23T18:26:38.319Z,101287.94
2022-09-23T18:30:40.238Z,101281.53
2022-09-23T18:34:41.862Z,101282.38
2022-09-23T18:38:43.591Z,101288.56
2022-09-23T18:42:45.229Z,101290.28
2022-09-23T18:46:46.883Z,101291.66
2022-09-23T18:50:49.363Z,101296.59
2022-09-23T18:54:55.085Z,101304.72
2022-09-23T18:58:56.915Z,101312.75
2022-09-23T19:02:58.721Z,101309.69
2022-09-23T19:07:00.473Z,101318.38
2022-09-23T19:11:04.053Z,101321.16
2022-09-23T19:15:06.170Z,101319.16
2022-09-23T19:19:08.689Z,101316.34
2022-09-23T19:23:10.359Z,101308.66
2022-09-23T19:27:12.024Z,101303.47
2022-09-23T19:31:25.294Z,101305.47
2022-09-23T19:35:27.326Z,101292.56
2022-09-23T19:39:31.634Z,101288.41
2022-09-23T19:43:36.973Z,101290.41
2022-09-23T19:47:39.503Z,101286.22
2022-09-23T19:51:41.449Z,101287.25
2022-09-23T19:55:44.370Z,101283.72
2022-09-23T19:59:46.128Z,101280.38
2022-09-23T20:03:48.235Z,101279.06
2022-09-23T20:07:50.332Z,101270.72
2022-09-23T20:11:52.215Z,101271.06
2022-09-23T20:15:53.927Z,101267.53
2022-09-23T20:19:55.643Z,101261.97
2022-09-23T20:23:58.073Z,101258.28
2022-09-23T20:27:59.720Z,101264.31
2022-09-23T20:32:01.595Z,101261.63
2022-09-23T20:36:03.402Z,101260.97
2022-09-23T20:40:05.763Z,101261.50
2022-09-23T20:44:12.466Z,101260.66
2022-09-23T20:48:14.598Z,101253.81
2022-09-23T20:52:17.965Z,101248.59
2022-09-23T20:56:21.382Z,101250.66
2022-09-23T21:00:23.077Z,101248.78
2022-09-23T21:04:25.535Z,101241.56
2022-09-23T21:08:27.311Z,101239.91
2022-09-23T21:12:29.027Z,101230.00
2022-09-23T21:16:31.039Z,101229.16
2022-09-23T21:20:32.903Z,101232.00
2022-09-23T21:25:12.126Z,101235.53
2022-09-23T21:28:59.684Z,101225.44
2022-09-23T21:33:01.997Z,101228.31
2022-09-23T21:37:04.309Z,101229.16
2022-09-23T21:41:09.055Z,101220.06
2022-09-23T21:45:11.119Z,101220.91
2022-09-23T21:49:13.302Z,101221.38
2022-09-23T21:53:17.851Z,101218.50
2022-09-23T21:57:19.543Z,101220.00
2022-09-23T22:01:24.114Z,101216.69
2022-09-23T22:05:25.924Z,101214.00
2022-09-23T22:09:27.677Z,101212.31
2022-09-23T22:13:29.427Z,101210.63
2022-09-23T22:17:33.185Z,101208.16
2022-09-23T22:21:36.733Z,101203.41
2022-09-23T22:25:38.474Z,101207.59
2022-09-23T22:29:58.685Z,101196.03
2022-09-23T22:34:00.413Z,101206.94
2022-09-23T22:38:02.127Z,101204.91
2022-09-23T22:42:05.432Z,101197.88
2022-09-23T22:46:07.264Z,101199.53
2022-09-23T22:50:09.819Z,101200.38
2022-09-23T22:54:11.979Z,101198.34
2022-09-23T22:58:31.035Z,101192.13
2022-09-23T23:02:34.076Z,101185.06
2022-09-23T23:06:37.152Z,101178.88
2022-09-23T23:10:38.855Z,101183.78
2022-09-23T23:14:40.797Z,101176.06
2022-09-23T23:18:43.430Z,101175.03
2022-09-23T23:22:45.123Z,101171.00
2022-09-23T23:26:47.577Z,101169.31
2022-09-23T23:30:49.256Z,101167.66
2022-09-23T23:34:50.936Z,101167.38
2022-09-23T23:38:52.703Z,101170.06
2022-09-23T23:42:54.599Z,101166.53
2022-09-23T23:46:56.340Z,101169.38
2022-09-23T23:50:59.507Z,101164.00
2022-09-23T23:55:01.204Z,101164.56
2022-09-23T23:59:03.588Z,101163.72
